KMDW/MDW METAR and TAF weather

Enter ICAO airport designator
Station Type Date Time Source
KMDW METAR 2018/12/18 19:53 UTC NOAA

KMDW 181953Z 20008KT 10SM FEW150 FEW250 06/M02 A3012 RMK AO2 SLP208 T00561022


Station Type Date Time Source
KMDW Decoded METAR 2018/12/18 19:53 UTC NOAA

CHICAGO MIDWAY AIRPORT, IL, United States (KMDW) 41-47N 087-45W 188M
Dec 18, 2018 - 02:53 PM EST / 2018.12.18 1953 UTC
Wind: from the SSW (200 degrees) at 9 MPH (8 KT):0
Visibility: 10 mile(s):0
Sky conditions: mostly clear
Temperature: 42.1 F (5.6 C)
Dew Point: 28.0 F (-2.2 C)
Relative Humidity: 57%
Pressure (altimeter): 30.12 in. Hg (1019 hPa)
ob: KMDW 181953Z 20008KT 10SM FEW150 FEW250 06/M02 A3012 RMK AO2 SLP208 T00561022
cycle: 20

Station Type Date Time Source
KMDW TAF 2018/12/18 18:24 UTC NOAA

TAF KMDW 181721Z 1818/1924 19010G16KT P6SM SCT250
FM190600 19008KT P6SM BKN150
FM191600 20011G18KT P6SM FEW020 BKN150


Example: see airport list